sensor_id;sensor_type;location;lat;lon;timestamp;pressure;altitude;pressure_sealevel;temperature;humidity
72465;BME280;60471;52.150;4.508;2024-01-16T00:00:07;100651.75;;;4.57;100.00
72465;BME280;60471;52.150;4.508;2024-01-16T00:02:34;100651.44;;;4.69;100.00
72465;BME280;60471;52.150;4.508;2024-01-16T00:05:00;100655.47;;;4.81;100.00
72465;BME280;60471;52.150;4.508;2024-01-16T00:07:26;100661.44;;;4.84;100.00
72465;BME280;60471;52.150;4.508;2024-01-16T00:09:52;100653.91;;;4.74;100.00
72465;BME280;60471;52.150;4.508;2024-01-16T00:12:20;100657.09;;;4.85;100.00
72465;BME280;60471;52.150;4.508;2024-01-16T00:14:46;100660.34;;;4.93;100.00
72465;BME280;60471;52.150;4.508;2024-01-16T00:17:12;100676.91;;;4.61;100.00
72465;BME280;60471;52.150;4.508;2024-01-16T00:19:38;100681.34;;;4.23;100.00
72465;BME280;60471;52.150;4.508;2024-01-16T00:22:04;100675.22;;;4.23;100.00
72465;BME280;60471;52.150;4.508;2024-01-16T00:24:30;100676.88;;;3.90;100.00
72465;BME280;60471;52.150;4.508;2024-01-16T00:26:56;100688.38;;;3.83;100.00
72465;BME280;60471;52.150;4.508;2024-01-16T00:29:22;100681.50;;;3.78;100.00
72465;BME280;60471;52.150;4.508;2024-01-16T00:31:49;100666.84;;;3.73;100.00
72465;BME280;60471;52.150;4.508;2024-01-16T00:34:15;100675.50;;;3.75;100.00
72465;BME280;60471;52.150;4.508;2024-01-16T00:36:41;100683.53;;;3.66;100.00
72465;BME280;60471;52.150;4.508;2024-01-16T00:39:07;100675.88;;;3.58;100.00
72465;BME280;60471;52.150;4.508;2024-01-16T00:41:33;100683.41;;;3.72;100.00
72465;BME280;60471;52.150;4.508;2024-01-16T00:43:59;100674.19;;;3.56;100.00
72465;BME280;60471;52.150;4.508;2024-01-16T00:46:25;100677.16;;;3.39;100.00
72465;BME280;60471;52.150;4.508;2024-01-16T00:48:51;100678.84;;;3.41;100.00
72465;BME280;60471;52.150;4.508;2024-01-16T00:51:17;100674.53;;;3.40;100.00
72465;BME280;60471;52.150;4.508;2024-01-16T00:53:43;100672.53;;;3.52;100.00
72465;BME280;60471;52.150;4.508;2024-01-16T00:56:10;100676.97;;;3.46;100.00
72465;BME280;60471;52.150;4.508;2024-01-16T00:58:36;100691.41;;;3.64;100.00
72465;BME280;60471;52.150;4.508;2024-01-16T01:01:03;100686.56;;;3.46;100.00
72465;BME280;60471;52.150;4.508;2024-01-16T01:03:29;100691.50;;;3.60;100.00
72465;BME280;60471;52.150;4.508;2024-01-16T01:05:55;100689.38;;;3.77;100.00
72465;BME280;60471;52.150;4.508;2024-01-16T01:08:21;100703.09;;;3.85;100.00
72465;BME280;60471;52.150;4.508;2024-01-16T01:10:47;100714.59;;;3.76;100.00
72465;BME280;60471;52.150;4.508;2024-01-16T01:13:13;100713.38;;;3.53;100.00
72465;BME280;60471;52.150;4.508;2024-01-16T01:15:39;100715.22;;;3.49;100.00
72465;BME280;60471;52.150;4.508;2024-01-16T01:18:06;100722.84;;;3.58;100.00
72465;BME280;60471;52.150;4.508;2024-01-16T01:20:32;100724.06;;;3.40;100.00
72465;BME280;60471;52.150;4.508;2024-01-16T01:22:58;100720.91;;;3.25;100.00
72465;BME280;60471;52.150;4.508;2024-01-16T01:25:25;100702.31;;;2.98;100.00
72465;BME280;60471;52.150;4.508;2024-01-16T01:27:52;100705.06;;;2.90;100.00
72465;BME280;60471;52.150;4.508;2024-01-16T01:30:18;100698.72;;;3.04;100.00
72465;BME280;60471;52.150;4.508;2024-01-16T01:32:44;100694.31;;;3.07;100.00
72465;BME280;60471;52.150;4.508;2024-01-16T01:35:10;100690.59;;;3.19;100.00
72465;BME280;60471;52.150;4.508;2024-01-16T01:37:37;100686.28;;;3.18;100.00
72465;BME280;60471;52.150;4.508;2024-01-16T01:40:04;100689.56;;;3.28;100.00
72465;BME280;60471;52.150;4.508;2024-01-16T01:42:30;100686.06;;;3.29;100.00
72465;BME280;60471;52.150;4.508;2024-01-16T01:44:56;100684.97;;;3.40;100.00
72465;BME280;60471;52.150;4.508;2024-01-16T01:47:22;100693.97;;;3.24;100.00
72465;BME280;60471;52.150;4.508;2024-01-16T01:49:48;100694.09;;;3.18;100.00
72465;BME280;60471;52.150;4.508;2024-01-16T01:52:15;100696.56;;;3.26;100.00
72465;BME280;60471;52.150;4.508;2024-01-16T01:54:43;100677.22;;;3.37;100.00
72465;BME280;60471;52.150;4.508;2024-01-16T01:57:10;100678.03;;;3.39;100.00
72465;BME280;60471;52.150;4.508;2024-01-16T01:59:36;100676.69;;;3.20;100.00
72465;BME280;60471;52.150;4.508;2024-01-16T02:02:03;100666.53;;;3.48;100.00
72465;BME280;60471;52.150;4.508;2024-01-16T02:04:30;100665.53;;;3.54;100.00
72465;BME280;60471;52.150;4.508;2024-01-16T02:06:57;100669.03;;;3.53;100.00
72465;BME280;60471;52.150;4.508;2024-01-16T02:09:23;100678.66;;;3.51;100.00
72465;BME280;60471;52.150;4.508;2024-01-16T02:11:49;100670.91;;;3.47;100.00
72465;BME280;60471;52.150;4.508;2024-01-16T02:14:15;100675.22;;;3.47;100.00
72465;BME280;60471;52.150;4.508;2024-01-16T02:16:41;100677.22;;;3.37;100.00
72465;BME280;60471;52.150;4.508;2024-01-16T02:19:10;100677.88;;;3.45;100.00
72465;BME280;60471;52.150;4.508;2024-01-16T02:21:41;100673.47;;;3.49;100.00
72465;BME280;60471;52.150;4.508;2024-01-16T02:24:12;100659.03;;;3.33;100.00
72465;BME280;60471;52.150;4.508;2024-01-16T02:26:39;100665.34;;;3.21;100.00
72465;BME280;60471;52.150;4.508;2024-01-16T02:29:05;100668.13;;;3.13;100.00
72465;BME280;60471;52.150;4.508;2024-01-16T02:31:31;100654.91;;;3.23;100.00
72465;BME280;60471;52.150;4.508;2024-01-16T02:33:58;100657.56;;;3.19;100.00
72465;BME280;60471;52.150;4.508;2024-01-16T02:36:25;100659.97;;;3.30;100.00
72465;BME280;60471;52.150;4.508;2024-01-16T02:38:51;100660.06;;;3.26;100.00
72465;BME280;60471;52.150;4.508;2024-01-16T02:41:18;100664.28;;;3.31;100.00
72465;BME280;60471;52.150;4.508;2024-01-16T02:43:44;100666.84;;;3.33;100.00
72465;BME280;60471;52.150;4.508;2024-01-16T02:46:10;100666.50;;;3.49;100.00
72465;BME280;60471;52.150;4.508;2024-01-16T02:48:36;100671.75;;;3.46;100.00
72465;BME280;60471;52.150;4.508;2024-01-16T02:51:03;100675.63;;;3.29;100.00
72465;BME280;60471;52.150;4.508;2024-01-16T02:53:30;100674.19;;;3.14;100.00
72465;BME280;60471;52.150;4.508;2024-01-16T02:55:57;100669.44;;;3.34;100.00
72465;BME280;60471;52.150;4.508;2024-01-16T02:58:24;100663.97;;;3.45;100.00
72465;BME280;60471;52.150;4.508;2024-01-16T03:00:54;100660.69;;;3.37;100.00
72465;BME280;60471;52.150;4.508;2024-01-16T03:03:21;100669.34;;;3.39;100.00
72465;BME280;60471;52.150;4.508;2024-01-16T03:05:47;100678.50;;;3.16;100.00
72465;BME280;60471;52.150;4.508;2024-01-16T03:08:13;100663.19;;;3.41;100.00
72465;BME280;60471;52.150;4.508;2024-01-16T03:10:39;100668.16;;;3.54;100.00
72465;BME280;60471;52.150;4.508;2024-01-16T03:13:05;100671.63;;;3.54;100.00
72465;BME280;60471;52.150;4.508;2024-01-16T03:15:31;100662.25;;;3.44;100.00
72465;BME280;60471;52.150;4.508;2024-01-16T03:18:00;100664.47;;;3.62;100.00
72465;BME280;60471;52.150;4.508;2024-01-16T03:20:27;100670.31;;;3.73;100.00
72465;BME280;60471;52.150;4.508;2024-01-16T03:22:53;100673.50;;;3.47;100.00
72465;BME280;60471;52.150;4.508;2024-01-16T03:25:20;100667.47;;;3.44;100.00
72465;BME280;60471;52.150;4.508;2024-01-16T03:27:46;100660.97;;;3.63;100.00
72465;BME280;60471;52.150;4.508;2024-01-16T03:30:13;100665.09;;;3.73;100.00
72465;BME280;60471;52.150;4.508;2024-01-16T03:32:39;100656.50;;;3.68;100.00
72465;BME280;60471;52.150;4.508;2024-01-16T03:35:05;100658.88;;;3.79;100.00
72465;BME280;60471;52.150;4.508;2024-01-16T03:37:32;100660.69;;;3.75;100.00
72465;BME280;60471;52.150;4.508;2024-01-16T03:39:58;100660.81;;;3.71;100.00
72465;BME280;60471;52.150;4.508;2024-01-16T03:42:24;100651.34;;;3.25;100.00
72465;BME280;60471;52.150;4.508;2024-01-16T03:44:50;100657.88;;;3.47;100.00
72465;BME280;60471;52.150;4.508;2024-01-16T03:47:17;100662.06;;;3.11;100.00
72465;BME280;60471;52.150;4.508;2024-01-16T03:49:43;100665.09;;;3.33;100.00
72465;BME280;60471;52.150;4.508;2024-01-16T03:52:09;100659.31;;;3.19;100.00
72465;BME280;60471;52.150;4.508;2024-01-16T03:54:35;100655.28;;;3.04;100.00
72465;BME280;60471;52.150;4.508;2024-01-16T03:57:01;100653.97;;;3.27;100.00
72465;BME280;60471;52.150;4.508;2024-01-16T03:59:27;100660.41;;;3.09;100.00
72465;BME280;60471;52.150;4.508;2024-01-16T04:01:53;100657.28;;;2.90;100.00
72465;BME280;60471;52.150;4.508;2024-01-16T04:04:19;100667.69;;;2.91;100.00
72465;BME280;60471;52.150;4.508;2024-01-16T04:06:46;100648.53;;;2.94;100.00
72465;BME280;60471;52.150;4.508;2024-01-16T04:09:12;100652.16;;;2.87;100.00
72465;BME280;60471;52.150;4.508;2024-01-16T04:11:40;100651.75;;;2.62;100.00
72465;BME280;60471;52.150;4.508;2024-01-16T04:14:06;100644.31;;;2.41;100.00
72465;BME280;60471;52.150;4.508;2024-01-16T04:16:32;100635.16;;;2.66;100.00
72465;BME280;60471;52.150;4.508;2024-01-16T04:18:58;100657.09;;;2.54;100.00
72465;BME280;60471;52.150;4.508;2024-01-16T04:21:25;100634.47;;;2.56;100.00
72465;BME280;60471;52.150;4.508;2024-01-16T04:23:51;100642.03;;;2.70;100.00
72465;BME280;60471;52.150;4.508;2024-01-16T04:26:17;100651.56;;;2.71;100.00
72465;BME280;60471;52.150;4.508;2024-01-16T04:28:44;100659.16;;;2.36;100.00
72465;BME280;60471;52.150;4.508;2024-01-16T04:31:11;100654.91;;;2.31;100.00
72465;BME280;60471;52.150;4.508;2024-01-16T04:33:37;100656.59;;;2.34;100.00
72465;BME280;60471;52.150;4.508;2024-01-16T04:36:04;100644.00;;;2.08;100.00
72465;BME280;60471;52.150;4.508;2024-01-16T04:38:32;100651.50;;;2.28;100.00
72465;BME280;60471;52.150;4.508;2024-01-16T04:41:01;100644.25;;;2.44;100.00
72465;BME280;60471;52.150;4.508;2024-01-16T04:43:28;100615.22;;;2.65;100.00
72465;BME280;60471;52.150;4.508;2024-01-16T04:45:54;100604.22;;;2.49;100.00
72465;BME280;60471;52.150;4.508;2024-01-16T04:48:20;100604.69;;;2.70;100.00
72465;BME280;60471;52.150;4.508;2024-01-16T04:50:46;100607.75;;;2.91;100.00
72465;BME280;60471;52.150;4.508;2024-01-16T04:53:12;100601.31;;;3.09;100.00
72465;BME280;60471;52.150;4.508;2024-01-16T04:55:38;100611.56;;;3.17;100.00
72465;BME280;60471;52.150;4.508;2024-01-16T04:58:04;100608.06;;;3.18;100.00
72465;BME280;60471;52.150;4.508;2024-01-16T05:00:31;100601.91;;;3.22;100.00
72465;BME280;60471;52.150;4.508;2024-01-16T05:02:57;100606.75;;;3.39;100.00
72465;BME280;60471;52.150;4.508;2024-01-16T05:05:23;100597.88;;;3.47;100.00
72465;BME280;60471;52.150;4.508;2024-01-16T05:07:49;100597.38;;;3.30;100.00
72465;BME280;60471;52.150;4.508;2024-01-16T05:10:16;100599.56;;;3.10;100.00
72465;BME280;60471;52.150;4.508;2024-01-16T05:12:42;100607.63;;;2.98;100.00
72465;BME280;60471;52.150;4.508;2024-01-16T05:15:09;100603.13;;;3.06;100.00
72465;BME280;60471;52.150;4.508;2024-01-16T05:17:37;100610.31;;;2.95;100.00
72465;BME280;60471;52.150;4.508;2024-01-16T05:20:03;100600.34;;;2.70;100.00
72465;BME280;60471;52.150;4.508;2024-01-16T05:22:30;100590.16;;;2.58;100.00
72465;BME280;60471;52.150;4.508;2024-01-16T05:24:56;100595.50;;;2.52;100.00
72465;BME280;60471;52.150;4.508;2024-01-16T05:27:22;100598.06;;;2.55;100.00
72465;BME280;60471;52.150;4.508;2024-01-16T05:29:48;100590.44;;;2.44;100.00
72465;BME280;60471;52.150;4.508;2024-01-16T05:32:14;100595.75;;;2.40;100.00
72465;BME280;60471;52.150;4.508;2024-01-16T05:34:40;100590.56;;;2.37;100.00
72465;BME280;60471;52.150;4.508;2024-01-16T05:37:06;100590.72;;;2.29;100.00
72465;BME280;60471;52.150;4.508;2024-01-16T05:39:32;100587.06;;;2.39;100.00
72465;BME280;60471;52.150;4.508;2024-01-16T05:41:58;100589.72;;;2.36;100.00
72465;BME280;60471;52.150;4.508;2024-01-16T05:44:24;100584.81;;;2.19;100.00
72465;BME280;60471;52.150;4.508;2024-01-16T05:46:50;100586.44;;;2.25;100.00
72465;BME280;60471;52.150;4.508;2024-01-16T05:49:16;100590.72;;;2.29;100.00
72465;BME280;60471;52.150;4.508;2024-01-16T05:51:42;100583.66;;;2.36;100.00
72465;BME280;60471;52.150;4.508;2024-01-16T05:54:08;100581.97;;;2.33;100.00
72465;BME280;60471;52.150;4.508;2024-01-16T05:56:34;100580.31;;;2.29;100.00
72465;BME280;60471;52.150;4.508;2024-01-16T05:59:00;100577.63;;;2.33;100.00
72465;BME280;60471;52.150;4.508;2024-01-16T06:01:26;100569.72;;;2.40;100.00
72465;BME280;60471;52.150;4.508;2024-01-16T06:03:53;100569.81;;;2.33;100.00
72465;BME280;60471;52.150;4.508;2024-01-16T06:06:20;100568.66;;;2.50;100.00
72465;BME280;60471;52.150;4.508;2024-01-16T06:08:47;100568.53;;;2.54;100.00
72465;BME280;60471;52.150;4.508;2024-01-16T06:11:13;100563.31;;;2.56;100.00
72465;BME280;60471;52.150;4.508;2024-01-16T06:13:39;100562.22;;;2.66;100.00
72465;BME280;60471;52.150;4.508;2024-01-16T06:16:06;100566.75;;;2.56;100.00
72465;BME280;60471;52.150;4.508;2024-01-16T06:18:34;100572.09;;;2.50;100.00
72465;BME280;60471;52.150;4.508;2024-01-16T06:21:01;100567.63;;;2.57;100.00
72465;BME280;60471;52.150;4.508;2024-01-16T06:23:30;100568.09;;;2.77;100.00
72465;BME280;60471;52.150;4.508;2024-01-16T06:25:56;100566.22;;;2.84;100.00
72465;BME280;60471;52.150;4.508;2024-01-16T06:28:22;100568.66;;;2.93;100.00
72465;BME280;60471;52.150;4.508;2024-01-16T06:30:48;100570.91;;;3.08;100.00
72465;BME280;60471;52.150;4.508;2024-01-16T06:33:14;100571.50;;;3.21;100.00
72465;BME280;60471;52.150;4.508;2024-01-16T06:35:40;100574.59;;;2.98;100.00
72465;BME280;60471;52.150;4.508;2024-01-16T06:38:06;100565.22;;;3.30;100.00
72465;BME280;60471;52.150;4.508;2024-01-16T06:40:32;100575.84;;;3.20;100.00
72465;BME280;60471;52.150;4.508;2024-01-16T06:42:58;100570.28;;;3.37;100.00
72465;BME280;60471;52.150;4.508;2024-01-16T06:45:24;100560.41;;;3.50;100.00
72465;BME280;60471;52.150;4.508;2024-01-16T06:47:52;100565.69;;;3.47;100.00
72465;BME280;60471;52.150;4.508;2024-01-16T06:50:18;100557.78;;;3.52;100.00
72465;BME280;60471;52.150;4.508;2024-01-16T06:52:44;100567.84;;;3.67;100.00
72465;BME280;60471;52.150;4.508;2024-01-16T06:55:10;100562.44;;;3.74;100.00
72465;BME280;60471;52.150;4.508;2024-01-16T06:57:36;100565.03;;;3.74;100.00
72465;BME280;60471;52.150;4.508;2024-01-16T07:00:02;100562.31;;;3.79;100.00
72465;BME280;60471;52.150;4.508;2024-01-16T07:02:28;100568.69;;;3.67;100.00
72465;BME280;60471;52.150;4.508;2024-01-16T07:04:54;100569.53;;;3.69;100.00
72465;BME280;60471;52.150;4.508;2024-01-16T07:07:20;100570.31;;;3.73;100.00
72465;BME280;60471;52.150;4.508;2024-01-16T07:09:46;100571.94;;;3.77;100.00
72465;BME280;60471;52.150;4.508;2024-01-16T07:12:12;100579.72;;;3.78;100.00
72465;BME280;60471;52.150;4.508;2024-01-16T07:14:39;100580.88;;;3.67;100.00
72465;BME280;60471;52.150;4.508;2024-01-16T07:17:05;100574.19;;;3.55;100.00
72465;BME280;60471;52.150;4.508;2024-01-16T07:19:33;100587.72;;;3.72;100.00
72465;BME280;60471;52.150;4.508;2024-01-16T07:21:59;100587.25;;;3.55;100.00
72465;BME280;60471;52.150;4.508;2024-01-16T07:24:26;100574.13;;;3.60;100.00
72465;BME280;60471;52.150;4.508;2024-01-16T07:26:53;100586.31;;;3.58;100.00
72465;BME280;60471;52.150;4.508;2024-01-16T07:29:20;100589.50;;;3.70;100.00
72465;BME280;60471;52.150;4.508;2024-01-16T07:31:46;100587.19;;;3.57;100.00
72465;BME280;60471;52.150;4.508;2024-01-16T07:34:12;100597.22;;;3.75;100.00
72465;BME280;60471;52.150;4.508;2024-01-16T07:36:38;100592.03;;;3.73;100.00
72465;BME280;60471;52.150;4.508;2024-01-16T07:39:04;100588.72;;;3.67;100.00
72465;BME280;60471;52.150;4.508;2024-01-16T07:41:30;100578.69;;;3.50;100.00
72465;BME280;60471;52.150;4.508;2024-01-16T07:43:56;100593.31;;;3.56;100.00
72465;BME280;60471;52.150;4.508;2024-01-16T07:46:22;100595.88;;;3.57;100.00
72465;BME280;60471;52.150;4.508;2024-01-16T07:48:48;100602.19;;;3.48;100.00
72465;BME280;60471;52.150;4.508;2024-01-16T07:51:14;100601.19;;;3.54;100.00
72465;BME280;60471;52.150;4.508;2024-01-16T07:53:40;100596.50;;;3.68;100.00
72465;BME280;60471;52.150;4.508;2024-01-16T07:56:06;100594.38;;;3.47;100.00
72465;BME280;60471;52.150;4.508;2024-01-16T07:58:32;100600.53;;;3.44;100.00
72465;BME280;60471;52.150;4.508;2024-01-16T08:01:00;100592.34;;;3.21;100.00
72465;BME280;60471;52.150;4.508;2024-01-16T08:03:26;100594.09;;;3.20;100.00
72465;BME280;60471;52.150;4.508;2024-01-16T08:05:52;100596.56;;;3.28;100.00
72465;BME280;60471;52.150;4.508;2024-01-16T08:08:18;100602.53;;;3.33;100.00
72465;BME280;60471;52.150;4.508;2024-01-16T08:10:44;100597.69;;;3.55;100.00
72465;BME280;60471;52.150;4.508;2024-01-16T08:13:10;100594.22;;;3.55;100.00
72465;BME280;60471;52.150;4.508;2024-01-16T08:15:36;100601.19;;;3.54;100.00
72465;BME280;60471;52.150;4.508;2024-01-16T08:18:02;100594.44;;;3.44;100.00
72465;BME280;60471;52.150;4.508;2024-01-16T08:20:28;100592.38;;;3.60;100.00
72465;BME280;60471;52.150;4.508;2024-01-16T08:22:54;100600.25;;;3.57;100.00
72465;BME280;60471;52.150;4.508;2024-01-16T08:25:20;100591.50;;;3.59;100.00
72465;BME280;60471;52.150;4.508;2024-01-16T08:27:46;100605.63;;;3.51;100.00
72465;BME280;60471;52.150;4.508;2024-01-16T08:30:13;100581.81;;;3.64;100.00
72465;BME280;60471;52.150;4.508;2024-01-16T08:32:39;100584.50;;;3.61;100.00
72465;BME280;60471;52.150;4.508;2024-01-16T08:35:05;100579.59;;;3.85;100.00
72465;BME280;60471;52.150;4.508;2024-01-16T08:37:32;100587.28;;;3.89;100.00
72465;BME280;60471;52.150;4.508;2024-01-16T08:39:58;100590.66;;;3.94;100.00
72465;BME280;60471;52.150;4.508;2024-01-16T08:42:24;100591.78;;;3.84;100.00
72465;BME280;60471;52.150;4.508;2024-01-16T08:44:50;100606.75;;;3.76;100.00
72465;BME280;60471;52.150;4.508;2024-01-16T08:47:17;100588.41;;;3.79;100.00
72465;BME280;60471;52.150;4.508;2024-01-16T08:49:43;100587.34;;;3.88;100.00
72465;BME280;60471;52.150;4.508;2024-01-16T08:52:09;100590.44;;;4.03;100.00
72465;BME280;60471;52.150;4.508;2024-01-16T08:54:35;100586.34;;;3.93;100.00
72465;BME280;60471;52.150;4.508;2024-01-16T08:57:02;100591.03;;;3.79;100.00
72465;BME280;60471;52.150;4.508;2024-01-16T08:59:28;100584.69;;;3.91;100.00
72465;BME280;60471;52.150;4.508;2024-01-16T09:01:54;100596.09;;;3.85;100.00
72465;BME280;60471;52.150;4.508;2024-01-16T09:04:20;100589.00;;;3.90;100.00
72465;BME280;60471;52.150;4.508;2024-01-16T09:06:46;100591.53;;;3.95;100.00
72465;BME280;60471;52.150;4.508;2024-01-16T09:09:12;100594.63;;;4.09;100.00
72465;BME280;60471;52.150;4.508;2024-01-16T09:11:38;100594.84;;;4.35;100.00
72465;BME280;60471;52.150;4.508;2024-01-16T09:14:04;100601.84;;;3.99;100.00
72465;BME280;60471;52.150;4.508;2024-01-16T09:16:30;100594.00;;;3.99;100.00
72465;BME280;60471;52.150;4.508;2024-01-16T09:18:56;100599.47;;;4.24;100.00
72465;BME280;60471;52.150;4.508;2024-01-16T09:21:22;100596.84;;;4.26;100.00
72465;BME280;60471;52.150;4.508;2024-01-16T09:23:48;100590.25;;;4.44;100.00
72465;BME280;60471;52.150;4.508;2024-01-16T09:26:14;100591.97;;;4.45;100.00
72465;BME280;60471;52.150;4.508;2024-01-16T09:28:40;100589.28;;;4.48;100.00
72465;BME280;60471;52.150;4.508;2024-01-16T09:31:06;100585.47;;;4.90;100.00
72465;BME280;60471;52.150;4.508;2024-01-16T09:33:33;100596.19;;;4.81;100.00
72465;BME280;60471;52.150;4.508;2024-01-16T09:36:00;100589.91;;;4.88;100.00
72465;BME280;60471;52.150;4.508;2024-01-16T09:38:26;100596.88;;;5.47;100.00
72465;BME280;60471;52.150;4.508;2024-01-16T09:40:52;100587.03;;;6.09;92.58
72465;BME280;60471;52.150;4.508;2024-01-16T09:43:22;100590.25;;;7.60;73.21
72465;BME280;60471;52.150;4.508;2024-01-16T09:45:49;100598.75;;;7.88;62.03
72465;BME280;60471;52.150;4.508;2024-01-16T09:48:16;100579.03;;;7.11;63.09
72465;BME280;60471;52.150;4.508;2024-01-16T09:50:42;100579.34;;;8.12;59.99
72465;BME280;60471;52.150;4.508;2024-01-16T09:53:09;100578.59;;;7.00;66.41
72465;BME280;60471;52.150;4.508;2024-01-16T09:55:36;100570.41;;;6.35;72.03
72465;BME280;60471;52.150;4.508;2024-01-16T09:58:02;100577.78;;;6.49;71.22
72465;BME280;60471;52.150;4.508;2024-01-16T10:00:31;100574.88;;;7.05;68.25
72465;BME280;60471;52.150;4.508;2024-01-16T10:02:58;100572.81;;;8.01;61.80
72465;BME280;60471;52.150;4.508;2024-01-16T10:05:25;100577.59;;;7.25;58.92
72465;BME280;60471;52.150;4.508;2024-01-16T10:07:51;100554.66;;;7.74;53.81
72465;BME280;60471;52.150;4.508;2024-01-16T10:10:17;100559.31;;;8.10;52.94
72465;BME280;60471;52.150;4.508;2024-01-16T10:12:44;100561.47;;;9.00;49.98
72465;BME280;60471;52.150;4.508;2024-01-16T10:15:12;100557.72;;;9.25;49.69
72465;BME280;60471;52.150;4.508;2024-01-16T10:17:43;100555.91;;;8.88;51.51
72465;BME280;60471;52.150;4.508;2024-01-16T10:20:09;100548.88;;;9.81;47.44
72465;BME280;60471;52.150;4.508;2024-01-16T10:22:39;100545.91;;;9.70;45.97
72465;BME280;60471;52.150;4.508;2024-01-16T10:27:34;100552.47;;;9.25;46.95
72465;BME280;60471;52.150;4.508;2024-01-16T10:30:02;100546.84;;;10.22;44.84
72465;BME280;60471;52.150;4.508;2024-01-16T10:32:36;100559.78;;;9.18;46.10
72465;BME280;60471;52.150;4.508;2024-01-16T10:35:06;100553.03;;;8.14;47.91
72465;BME280;60471;52.150;4.508;2024-01-16T10:40:26;100578.31;;;8.17;49.31
72465;BME280;60471;52.150;4.508;2024-01-16T10:42:59;100548.38;;;8.41;49.93
72465;BME280;60471;52.150;4.508;2024-01-16T10:45:27;100559.69;;;8.82;48.05
72465;BME280;60471;52.150;4.508;2024-01-16T10:48:06;100560.78;;;9.16;47.86
72465;BME280;60471;52.150;4.508;2024-01-16T10:50:33;100549.00;;;10.31;46.31
72465;BME280;60471;52.150;4.508;2024-01-16T10:53:03;100525.53;;;12.60;42.13
72465;BME280;60471;52.150;4.508;2024-01-16T10:55:30;100535.06;;;12.63;39.73
72465;BME280;60471;52.150;4.508;2024-01-16T10:58:00;100530.91;;;12.00;40.96
72465;BME280;60471;52.150;4.508;2024-01-16T11:00:28;100529.06;;;10.92;43.01
72465;BME280;60471;52.150;4.508;2024-01-16T11:02:59;100524.97;;;9.30;46.78
72465;BME280;60471;52.150;4.508;2024-01-16T11:05:31;100535.63;;;7.47;54.31
72465;BME280;60471;52.150;4.508;2024-01-16T11:08:01;100520.09;;;9.59;52.65
72465;BME280;60471;52.150;4.508;2024-01-16T11:10:27;100511.63;;;11.37;46.08
72465;BME280;60471;52.150;4.508;2024-01-16T11:12:54;100531.34;;;10.66;47.33
72465;BME280;60471;52.150;4.508;2024-01-16T11:15:21;100524.78;;;9.88;46.36
72465;BME280;60471;52.150;4.508;2024-01-16T11:17:48;100518.59;;;10.90;46.48
72465;BME280;60471;52.150;4.508;2024-01-16T11:20:15;100513.00;;;13.19;40.56
72465;BME280;60471;52.150;4.508;2024-01-16T11:22:43;100500.09;;;12.72;39.69
72465;BME280;60471;52.150;4.508;2024-01-16T11:27:37;100498.31;;;15.70;34.92
72465;BME280;60471;52.150;4.508;2024-01-16T11:30:08;100494.00;;;14.06;35.77
72465;BME280;60471;52.150;4.508;2024-01-16T11:32:36;100479.50;;;17.20;32.10
72465;BME280;60471;52.150;4.508;2024-01-16T11:35:10;100482.72;;;16.80;32.15
72465;BME280;60471;52.150;4.508;2024-01-16T11:37:39;100492.00;;;16.41;32.16
72465;BME280;60471;52.150;4.508;2024-01-16T11:42:45;100507.06;;;14.86;31.44
72465;BME280;60471;52.150;4.508;2024-01-16T11:48:08;100486.81;;;8.84;45.27
72465;BME280;60471;52.150;4.508;2024-01-16T11:50:37;100501.41;;;12.79;37.66
72465;BME280;60471;52.150;4.508;2024-01-16T11:53:04;100489.81;;;11.01;39.05
72465;BME280;60471;52.150;4.508;2024-01-16T11:55:33;100492.44;;;9.85;42.20
72465;BME280;60471;52.150;4.508;2024-01-16T11:58:14;100485.78;;;10.30;42.54
72465;BME280;60471;52.150;4.508;2024-01-16T12:01:06;100473.22;;;14.13;36.41
72465;BME280;60471;52.150;4.508;2024-01-16T12:03:33;100472.94;;;12.11;37.21
72465;BME280;60471;52.150;4.508;2024-01-16T12:05:59;100476.84;;;9.63;42.16
72465;BME280;60471;52.150;4.508;2024-01-16T12:08:26;100468.97;;;12.75;37.42
72465;BME280;60471;52.150;4.508;2024-01-16T12:10:52;100472.06;;;12.96;36.55
72465;BME280;60471;52.150;4.508;2024-01-16T12:13:18;100479.19;;;13.37;36.46
72465;BME280;60471;52.150;4.508;2024-01-16T12:15:44;100471.03;;;11.08;38.94
72465;BME280;60471;52.150;4.508;2024-01-16T12:18:17;100476.50;;;10.23;41.12
72465;BME280;60471;52.150;4.508;2024-01-16T12:20:44;100481.22;;;10.33;40.22
72465;BME280;60471;52.150;4.508;2024-01-16T12:23:10;100475.38;;;9.04;42.51
72465;BME280;60471;52.150;4.508;2024-01-16T12:25:36;100481.25;;;10.49;38.85
72465;BME280;60471;52.150;4.508;2024-01-16T12:28:04;100466.78;;;8.82;42.40
72465;BME280;60471;52.150;4.508;2024-01-16T12:30:35;100467.94;;;10.35;43.11
72465;BME280;60471;52.150;4.508;2024-01-16T12:33:08;100463.31;;;13.23;37.87
72465;BME280;60471;52.150;4.508;2024-01-16T12:35:36;100447.81;;;13.71;36.83
72465;BME280;60471;52.150;4.508;2024-01-16T12:38:04;100453.81;;;15.00;34.16
72465;BME280;60471;52.150;4.508;2024-01-16T12:40:32;100438.41;;;14.56;33.56
72465;BME280;60471;52.150;4.508;2024-01-16T12:42:59;100457.09;;;9.37;40.85
72465;BME280;60471;52.150;4.508;2024-01-16T12:45:25;100471.94;;;7.64;45.76
72465;BME280;60471;52.150;4.508;2024-01-16T12:47:52;100458.41;;;9.98;42.94
72465;BME280;60471;52.150;4.508;2024-01-16T12:50:22;100442.72;;;8.89;44.71
72465;BME280;60471;52.150;4.508;2024-01-16T12:52:50;100447.09;;;13.54;38.05
72465;BME280;60471;52.150;4.508;2024-01-16T12:55:25;100433.94;;;13.92;35.09
72465;BME280;60471;52.150;4.508;2024-01-16T13:00:47;100426.31;;;12.80;37.71
72465;BME280;60471;52.150;4.508;2024-01-16T13:03:21;100429.06;;;14.99;35.43